Time;durP1;ratioP1;P1;durP2;ratioP2;P2;SDS_P1;SDS_P2;PMS_P1;PMS_P2;Temp;Humidity;BMP_temperature;BMP_pressure;BME280_temperature;BME280_humidity;BME280_pressure;Samples;Min_cycle;Max_cycle;Signal;HPM_P1;HPM_P2
2022/08/13 00:00:11;;;;;;;;;;;20.10;54.20;;;;;;5096960;28;19917;-79
2022/08/13 00:02:43;;;;;;;;;;;20.10;54.20;;;;;;5081077;28;19965;-79
2022/08/13 00:05:09;;;;;;;;;;;20.10;54.20;;;;;;5099355;28;20395;-79
2022/08/13 00:07:35;;;;;;;;;;;20.00;54.10;;;;;;5102257;28;19984;-79
2022/08/13 00:10:02;;;;;;;;;;;20.00;54.20;;;;;;5084768;28;19919;-79
2022/08/13 00:15:20;;;;;;;;;;;20.00;54.20;;;;;;5110953;28;19930;-78
2022/08/13 00:17:50;;;;;;;;;;;20.00;54.20;;;;;;5110027;28;19908;-79
2022/08/13 00:20:19;;;;;;;;;;;20.00;54.10;;;;;;5112664;28;19897;-78
2022/08/13 00:22:47;;;;;;;;;;;20.00;54.10;;;;;;5111960;28;19918;-79
2022/08/13 00:25:13;;;;;;;;;;;20.00;54.00;;;;;;5109113;28;20002;-79
2022/08/13 00:27:38;;;;;;;;;;;20.00;54.10;;;;;;5110545;28;19912;-79
2022/08/13 00:30:05;;;;;;;;;;;20.00;54.10;;;;;;5107889;28;19941;-79
2022/08/13 00:32:32;;;;;;;;;;;20.00;54.10;;;;;;5108626;28;19916;-79
2022/08/13 00:34:58;;;;;;;;;;;20.00;54.20;;;;;;5111598;28;19918;-79
2022/08/13 00:37:27;;;;;;;;;;;20.00;54.20;;;;;;5112408;28;19951;-79
2022/08/13 00:39:56;;;;;;;;;;;19.90;54.10;;;;;;5111200;28;19947;-79
2022/08/13 00:42:22;;;;;;;;;;;19.90;54.10;;;;;;5114281;28;19916;-79
2022/08/13 00:44:48;;;;;;;;;;;20.00;54.20;;;;;;5111178;28;19968;-78
2022/08/13 00:49:58;;;;;;;;;;;19.90;54.10;;;;;;5113779;28;19904;-79
2022/08/13 00:52:30;;;;;;;;;;;20.00;54.20;;;;;;5109852;28;19904;-79
2022/08/13 00:55:00;;;;;;;;;;;20.00;54.10;;;;;;5111071;28;19909;-79
2022/08/13 00:57:28;;;;;;;;;;;20.00;54.10;;;;;;5111385;28;19999;-79
2022/08/13 00:59:54;;;;;;;;;;;20.00;54.10;;;;;;5113310;28;20382;-79
2022/08/13 01:02:20;;;;;;;;;;;20.10;54.10;;;;;;5113982;28;19919;-79
2022/08/13 01:04:46;;;;;;;;;;;20.00;54.00;;;;;;5108406;28;20015;-79
2022/08/13 01:07:13;;;;;;;;;;;20.10;54.00;;;;;;5108563;28;19908;-79
2022/08/13 01:09:40;;;;;;;;;;;20.10;54.00;;;;;;5108012;28;19915;-79
2022/08/13 01:12:09;;;;;;;;;;;20.10;54.00;;;;;;5109611;28;19920;-79
2022/08/13 01:14:36;;;;;;;;;;;20.10;53.90;;;;;;5109089;28;19923;-79
2022/08/13 01:17:03;;;;;;;;;;;20.10;53.80;;;;;;5108587;28;19933;-79
2022/08/13 01:19:30;;;;;;;;;;;20.10;53.80;;;;;;5109987;28;19920;-79
2022/08/13 01:21:57;;;;;;;;;;;20.00;53.80;;;;;;5108668;28;19919;-79
2022/08/13 01:24:23;;;;;;;;;;;20.00;53.90;;;;;;5111492;28;19976;-79
2022/08/13 01:26:48;;;;;;;;;;;19.90;54.00;;;;;;5112363;28;19919;-79
2022/08/13 01:29:18;;;;;;;;;;;19.80;54.10;;;;;;5110077;28;19956;-79
2022/08/13 01:31:44;;;;;;;;;;;19.80;54.10;;;;;;5106582;28;19987;-79
2022/08/13 01:34:10;;;;;;;;;;;19.70;54.10;;;;;;5094911;28;19950;-79
2022/08/13 01:36:36;;;;;;;;;;;19.70;54.10;;;;;;5096425;28;19908;-79
2022/08/13 01:39:04;;;;;;;;;;;19.60;54.20;;;;;;5105797;28;19930;-79
2022/08/13 01:41:31;;;;;;;;;;;19.60;54.20;;;;;;5112610;28;20490;-79
2022/08/13 01:44:04;;;;;;;;;;;19.60;54.30;;;;;;5113682;28;19946;-79
2022/08/13 01:50:28;;;;;;;;;;;19.50;54.20;;;;;;5109294;28;19954;-79
2022/08/13 01:52:00;;;;;;;;;;;19.50;54.30;;;;;;5098817;28;19927;-79
2022/08/13 01:54:26;;;;;;;;;;;19.50;54.30;;;;;;5101034;28;19913;-78
2022/08/13 01:56:52;;;;;;;;;;;19.50;54.30;;;;;;5105073;28;19916;-78
2022/08/13 01:59:18;;;;;;;;;;;19.40;54.30;;;;;;5105076;28;19949;-78
2022/08/13 02:01:45;;;;;;;;;;;19.40;54.30;;;;;;5106119;28;19908;-78
2022/08/13 02:04:13;;;;;;;;;;;19.40;54.30;;;;;;5108227;28;19916;-78
2022/08/13 02:06:40;;;;;;;;;;;19.40;54.30;;;;;;5108174;28;19908;-78
2022/08/13 02:09:06;;;;;;;;;;;19.40;54.30;;;;;;5106992;28;19922;-78
2022/08/13 02:11:36;;;;;;;;;;;19.40;54.30;;;;;;5106979;28;20004;-78
2022/08/13 02:14:05;;;;;;;;;;;19.40;54.30;;;;;;5106854;28;19991;-79
2022/08/13 02:16:31;;;;;;;;;;;19.40;54.30;;;;;;5109278;28;19919;-79
2022/08/13 02:18:57;;;;;;;;;;;19.40;54.30;;;;;;5107675;28;19915;-79
2022/08/13 02:21:25;;;;;;;;;;;19.40;54.30;;;;;;5110965;28;19908;-79
2022/08/13 02:23:56;;;;;;;;;;;19.40;54.30;;;;;;5108718;28;19956;-79
2022/08/13 02:26:27;;;;;;;;;;;19.40;54.30;;;;;;5111439;28;19912;-78
2022/08/13 02:28:54;;;;;;;;;;;19.40;54.30;;;;;;5110891;28;20149;-79
2022/08/13 02:31:21;;;;;;;;;;;19.30;54.30;;;;;;5110460;28;20273;-78
2022/08/13 02:33:47;;;;;;;;;;;19.30;54.30;;;;;;5112004;28;19903;-79
2022/08/13 02:36:12;;;;;;;;;;;19.30;54.30;;;;;;5110884;28;19907;-78
2022/08/13 02:38:38;;;;;;;;;;;19.30;54.30;;;;;;5111122;28;19908;-79
2022/08/13 02:43:50;;;;;;;;;;;19.30;54.40;;;;;;5110485;28;20368;-78
2022/08/13 02:46:16;;;;;;;;;;;19.30;54.30;;;;;;5107549;28;19912;-78
2022/08/13 02:48:42;;;;;;;;;;;19.20;54.30;;;;;;5107433;28;19949;-78
2022/08/13 02:51:11;;;;;;;;;;;19.30;54.30;;;;;;5110581;28;20371;-78
2022/08/13 02:53:38;;;;;;;;;;;19.20;54.30;;;;;;5110918;28;19959;-78
2022/08/13 02:56:08;;;;;;;;;;;19.20;54.30;;;;;;5107732;28;19959;-79
2022/08/13 02:58:34;;;;;;;;;;;19.20;54.30;;;;;;5109331;28;19892;-78
2022/08/13 03:01:02;;;;;;;;;;;19.20;54.30;;;;;;5109798;28;19923;-78
2022/08/13 03:03:28;;;;;;;;;;;19.20;54.30;;;;;;5110265;28;19956;-78
2022/08/13 03:05:54;;;;;;;;;;;19.20;54.30;;;;;;5090460;28;19896;-79
2022/08/13 03:08:19;;;;;;;;;;;19.20;54.20;;;;;;5104569;28;19923;-79
2022/08/13 03:10:46;;;;;;;;;;;19.20;54.30;;;;;;5097657;28;19922;-79
2022/08/13 03:13:15;;;;;;;;;;;19.10;54.30;;;;;;5099852;28;20011;-79
2022/08/13 03:15:41;;;;;;;;;;;19.10;54.30;;;;;;5101458;28;19980;-79
2022/08/13 03:18:09;;;;;;;;;;;19.10;54.30;;;;;;5101361;28;19999;-78
2022/08/13 03:20:34;;;;;;;;;;;19.00;54.30;;;;;;5099882;28;19912;-78
2022/08/13 03:23:01;;;;;;;;;;;19.00;54.30;;;;;;5104139;28;19923;-78
2022/08/13 03:25:28;;;;;;;;;;;19.00;54.40;;;;;;5111003;28;19977;-78
2022/08/13 03:27:54;;;;;;;;;;;18.90;54.40;;;;;;5108855;28;19914;-78
2022/08/13 03:30:21;;;;;;;;;;;18.90;54.40;;;;;;5111437;28;19916;-79
2022/08/13 03:32:47;;;;;;;;;;;18.80;54.40;;;;;;5110654;28;19908;-78
2022/08/13 03:35:15;;;;;;;;;;;18.80;54.50;;;;;;5111321;28;19908;-78
2022/08/13 03:37:41;;;;;;;;;;;18.70;54.50;;;;;;5114409;28;19930;-78
2022/08/13 03:40:07;;;;;;;;;;;18.70;54.50;;;;;;5114817;28;19908;-78
2022/08/13 03:42:34;;;;;;;;;;;18.70;54.50;;;;;;5115075;28;19908;-79
2022/08/13 03:45:01;;;;;;;;;;;18.70;54.50;;;;;;5115229;28;19948;-79
2022/08/13 03:47:26;;;;;;;;;;;18.60;54.50;;;;;;5112422;28;19896;-79
2022/08/13 03:49:52;;;;;;;;;;;18.60;54.50;;;;;;5108676;28;19961;-79
2022/08/13 03:52:17;;;;;;;;;;;18.60;54.50;;;;;;5111196;28;19920;-78
2022/08/13 03:54:43;;;;;;;;;;;18.70;54.50;;;;;;5110492;28;19970;-79
2022/08/13 03:57:08;;;;;;;;;;;18.60;54.40;;;;;;5112421;28;20377;-78
2022/08/13 03:59:34;;;;;;;;;;;18.60;54.50;;;;;;5113323;28;19896;-79
2022/08/13 04:02:01;;;;;;;;;;;18.60;54.50;;;;;;5111016;28;19912;-78
2022/08/13 04:04:27;;;;;;;;;;;18.60;54.60;;;;;;5110981;28;19912;-78
2022/08/13 04:06:53;;;;;;;;;;;18.60;54.60;;;;;;5112957;28;19991;-78
2022/08/13 04:09:18;;;;;;;;;;;18.50;54.50;;;;;;5114643;28;19908;-79
2022/08/13 04:11:46;;;;;;;;;;;18.60;54.60;;;;;;5113866;28;19905;-80
2022/08/13 04:14:12;;;;;;;;;;;18.50;54.50;;;;;;5110811;28;19919;-80
2022/08/13 04:16:39;;;;;;;;;;;18.60;54.60;;;;;;5111006;28;20368;-79
2022/08/13 04:19:05;;;;;;;;;;;18.60;54.60;;;;;;5114542;28;19897;-79
2022/08/13 04:21:32;;;;;;;;;;;18.60;54.50;;;;;;5114860;28;19919;-79
2022/08/13 04:23:59;;;;;;;;;;;18.70;54.40;;;;;;5115806;28;19935;-79
2022/08/13 04:26:25;;;;;;;;;;;18.60;54.30;;;;;;5111031;28;20368;-79
2022/08/13 04:28:53;;;;;;;;;;;18.50;54.40;;;;;;5104515;28;19908;-79
2022/08/13 04:31:19;;;;;;;;;;;18.50;54.50;;;;;;5105729;28;19924;-79
2022/08/13 04:33:45;;;;;;;;;;;18.50;54.60;;;;;;5103753;28;19923;-79
2022/08/13 04:36:11;;;;;;;;;;;18.50;54.50;;;;;;5104422;28;19981;-79
2022/08/13 04:38:38;;;;;;;;;;;18.50;54.40;;;;;;5089007;28;19912;-79
2022/08/13 04:41:03;;;;;;;;;;;18.50;54.40;;;;;;5107063;28;19923;-79
2022/08/13 04:43:29;;;;;;;;;;;18.50;54.40;;;;;;5102413;28;19912;-79
2022/08/13 04:46:00;;;;;;;;;;;18.40;54.50;;;;;;5095531;28;19918;-79
2022/08/13 04:48:28;;;;;;;;;;;18.40;54.50;;;;;;5095573;28;19912;-79
2022/08/13 04:50:54;;;;;;;;;;;18.40;54.40;;;;;;5095947;28;19916;-79
2022/08/13 04:53:21;;;;;;;;;;;18.40;54.40;;;;;;5095096;28;19919;-79
2022/08/13 04:55:47;;;;;;;;;;;18.50;54.40;;;;;;5100841;28;20360;-79
2022/08/13 04:58:12;;;;;;;;;;;18.50;54.30;;;;;;5096629;28;19919;-79
2022/08/13 05:00:38;;;;;;;;;;;18.40;54.30;;;;;;5096661;28;19919;-80
2022/08/13 05:03:22;;;;;;;;;;;18.30;54.30;;;;;;5079901;28;20368;-79
2022/08/13 05:05:49;;;;;;;;;;;18.30;54.40;;;;;;5098163;28;19967;-79
2022/08/13 05:08:16;;;;;;;;;;;18.20;54.50;;;;;;5096352;28;19908;-79
2022/08/13 05:10:42;;;;;;;;;;;18.20;54.50;;;;;;5099559;28;19918;-79
2022/08/13 05:13:25;;;;;;;;;;;18.20;54.50;;;;;;5099872;28;19912;-79
2022/08/13 05:15:51;;;;;;;;;;;18.20;54.40;;;;;;5103091;28;19915;-80
2022/08/13 05:18:17;;;;;;;;;;;18.20;54.40;;;;;;5103141;28;19912;-79
2022/08/13 05:20:43;;;;;;;;;;;18.20;54.50;;;;;;5105144;28;19931;-79
2022/08/13 05:23:09;;;;;;;;;;;18.20;54.50;;;;;;5103093;28;19938;-79
2022/08/13 05:25:35;;;;;;;;;;;18.20;54.50;;;;;;5104999;28;19919;-79
2022/08/13 05:28:01;;;;;;;;;;;18.20;54.50;;;;;;5105228;28;20379;-79
2022/08/13 05:30:27;;;;;;;;;;;18.20;54.60;;;;;;5105835;28;19929;-79
2022/08/13 05:32:57;;;;;;;;;;;18.10;54.60;;;;;;5101570;28;19934;-71
2022/08/13 05:35:24;;;;;;;;;;;18.20;55.10;;;;;;5101291;28;19896;-79
2022/08/13 05:37:50;;;;;;;;;;;18.20;54.60;;;;;;5106256;28;19908;-79
2022/08/13 05:40:15;;;;;;;;;;;18.30;54.60;;;;;;5106629;28;19916;-79
2022/08/13 05:42:41;;;;;;;;;;;18.40;54.60;;;;;;5103819;28;19912;-79
2022/08/13 05:45:07;;;;;;;;;;;18.40;54.50;;;;;;5106091;28;20315;-79
2022/08/13 05:47:35;;;;;;;;;;;18.50;54.50;;;;;;5106845;28;19912;-79
2022/08/13 05:50:13;;;;;;;;;;;18.60;54.50;;;;;;5105846;28;20280;-79
2022/08/13 05:52:39;;;;;;;;;;;18.70;54.40;;;;;;5105952;28;19924;-79
2022/08/13 05:55:06;;;;;;;;;;;18.80;54.40;;;;;;5108854;28;19975;-77
2022/08/13 05:57:32;;;;;;;;;;;18.90;54.40;;;;;;5105911;28;19929;-79
2022/08/13 06:05:26;;;;;;;;;;;19.10;54.40;;;;;;5103676;28;19923;-78
2022/08/13 06:07:52;;;;;;;;;;;19.20;54.40;;;;;;5106823;28;19912;-79
2022/08/13 06:10:18;;;;;;;;;;;19.20;54.40;;;;;;5105027;28;19912;-78
2022/08/13 06:12:44;;;;;;;;;;;19.20;54.40;;;;;;5106486;28;19920;-78
2022/08/13 06:15:10;;;;;;;;;;;19.30;54.50;;;;;;5090303;28;19946;-79
2022/08/13 06:17:36;;;;;;;;;;;19.30;54.50;;;;;;5108273;28;19926;-78
2022/08/13 06:20:04;;;;;;;;;;;19.40;54.60;;;;;;5098420;28;19912;-79
2022/08/13 06:22:33;;;;;;;;;;;19.50;54.60;;;;;;5090190;28;19916;-79
2022/08/13 06:25:00;;;;;;;;;;;19.60;54.60;;;;;;5100236;28;19939;-78
2022/08/13 06:27:25;;;;;;;;;;;19.70;54.60;;;;;;5101833;28;19942;-79
2022/08/13 06:29:52;;;;;;;;;;;19.80;54.70;;;;;;5098808;28;20281;-79
2022/08/13 06:32:21;;;;;;;;;;;20.00;54.60;;;;;;5097468;28;19923;-79
2022/08/13 06:34:46;;;;;;;;;;;20.20;54.40;;;;;;5101722;28;19916;-79
2022/08/13 06:37:12;;;;;;;;;;;20.30;54.40;;;;;;5104593;28;19980;-79
2022/08/13 06:39:38;;;;;;;;;;;20.30;54.40;;;;;;5101832;28;19923;-79
2022/08/13 06:42:04;;;;;;;;;;;20.30;54.30;;;;;;5106868;28;19923;-79
2022/08/13 06:44:31;;;;;;;;;;;20.40;54.50;;;;;;5107058;28;19909;-79
2022/08/13 06:46:58;;;;;;;;;;;20.50;54.50;;;;;;5109545;28;19908;-79
2022/08/13 06:49:24;;;;;;;;;;;20.50;54.40;;;;;;5107763;28;19937;-79
2022/08/13 06:51:50;;;;;;;;;;;20.60;54.40;;;;;;5107982;28;19959;-78
2022/08/13 06:54:15;;;;;;;;;;;20.60;54.50;;;;;;5111232;28;19912;-79
2022/08/13 06:56:41;;;;;;;;;;;20.70;54.50;;;;;;5111496;28;19971;-79
2022/08/13 06:59:06;;;;;;;;;;;20.70;54.50;;;;;;5112492;28;19912;-79
2022/08/13 07:01:32;;;;;;;;;;;20.90;54.40;;;;;;5111216;28;19921;-79
2022/08/13 07:03:58;;;;;;;;;;;20.90;54.30;;;;;;5111978;28;20331;-78
2022/08/13 07:06:26;;;;;;;;;;;20.90;54.30;;;;;;5107945;28;19939;-79
2022/08/13 07:08:57;;;;;;;;;;;21.00;54.40;;;;;;5109524;28;19908;-79
2022/08/13 07:11:23;;;;;;;;;;;21.00;54.40;;;;;;5101765;28;19916;-80
2022/08/13 07:14:01;;;;;;;;;;;21.10;54.40;;;;;;5105703;28;19998;-80
2022/08/13 07:16:30;;;;;;;;;;;21.30;54.40;;;;;;5105762;28;20326;-79
2022/08/13 07:18:56;;;;;;;;;;;21.40;54.30;;;;;;5107047;28;19984;-80
2022/08/13 07:21:24;;;;;;;;;;;21.70;54.50;;;;;;5106846;28;19919;-79
2022/08/13 07:23:50;;;;;;;;;;;22.20;54.30;;;;;;5105998;28;19912;-80
2022/08/13 07:26:18;;;;;;;;;;;22.90;54.10;;;;;;5104995;28;19912;-80
2022/08/13 07:28:45;;;;;;;;;;;23.50;53.60;;;;;;5107393;28;19909;-80
2022/08/13 07:31:11;;;;;;;;;;;24.10;53.50;;;;;;5103698;28;19912;-80
2022/08/13 07:33:37;;;;;;;;;;;24.30;53.20;;;;;;5101529;28;19988;-80
2022/08/13 07:36:06;;;;;;;;;;;24.30;53.10;;;;;;5102189;28;20011;-80
2022/08/13 07:38:33;;;;;;;;;;;24.50;53.60;;;;;;5103138;28;19919;-81
2022/08/13 07:41:00;;;;;;;;;;;25.20;53.70;;;;;;5100813;28;19916;-80
2022/08/13 07:43:26;;;;;;;;;;;25.70;53.40;;;;;;5101053;28;19909;-80
2022/08/13 07:46:05;;;;;;;;;;;26.50;53.90;;;;;;5101039;28;19938;-81
2022/08/13 07:48:31;;;;;;;;;;;27.40;54.00;;;;;;5098488;28;20408;-81
2022/08/13 07:50:59;;;;;;;;;;;28.30;53.90;;;;;;5095671;28;19965;-81
2022/08/13 07:53:24;;;;;;;;;;;29.00;53.90;;;;;;5093885;28;20045;-81
2022/08/13 07:55:51;;;;;;;;;;;29.90;53.70;;;;;;5090779;28;19912;-81
2022/08/13 07:58:16;;;;;;;;;;;30.40;53.30;;;;;;5091758;28;19912;-81
2022/08/13 08:00:44;;;;;;;;;;;30.60;53.50;;;;;;5091867;28;19999;-81
2022/08/13 08:03:10;;;;;;;;;;;31.00;53.70;;;;;;5093184;28;20383;-81
2022/08/13 08:05:38;;;;;;;;;;;31.50;53.50;;;;;;5093190;28;19912;-80
2022/08/13 08:08:04;;;;;;;;;;;31.70;53.50;;;;;;5098291;28;19976;-81
2022/08/13 08:10:30;;;;;;;;;;;31.60;53.70;;;;;;5090896;28;19912;-81
2022/08/13 08:12:59;;;;;;;;;;;31.50;54.10;;;;;;5092011;28;20006;-82
2022/08/13 08:15:26;;;;;;;;;;;31.80;54.40;;;;;;5089057;28;19908;-82
2022/08/13 08:17:52;;;;;;;;;;;32.20;54.20;;;;;;5089221;28;19970;-81
2022/08/13 08:20:23;;;;;;;;;;;32.70;54.30;;;;;;5090044;28;19908;-81
2022/08/13 08:22:49;;;;;;;;;;;33.10;54.20;;;;;;5089660;28;19931;-82
2022/08/13 08:25:18;;;;;;;;;;;33.40;54.00;;;;;;5089754;28;19908;-83
2022/08/13 08:27:44;;;;;;;;;;;33.50;54.10;;;;;;5088892;28;19912;-82
2022/08/13 08:30:13;;;;;;;;;;;33.90;54.30;;;;;;5088797;28;19915;-82
2022/08/13 08:32:41;;;;;;;;;;;34.10;54.20;;;;;;5090009;28;19912;-82
2022/08/13 08:35:07;;;;;;;;;;;34.40;54.60;;;;;;5089802;28;19908;-82
2022/08/13 08:43:04;;;;;;;;;;;35.50;54.80;;;;;;5088594;28;19919;-83
2022/08/13 08:45:31;;;;;;;;;;;36.10;54.60;;;;;;5087574;28;19916;-82
2022/08/13 08:47:57;;;;;;;;;;;36.20;54.40;;;;;;5087561;28;19963;-82
2022/08/13 08:50:24;;;;;;;;;;;36.20;54.80;;;;;;5087454;28;19916;-83
2022/08/13 08:55:38;;;;;;;;;;;36.90;55.10;;;;;;5087720;28;19919;-82
2022/08/13 08:58:05;;;;;;;;;;;37.10;55.10;;;;;;5087589;28;19919;-81
2022/08/13 09:00:31;;;;;;;;;;;37.10;55.30;;;;;;5089554;28;19908;-82
2022/08/13 09:02:57;;;;;;;;;;;37.30;55.50;;;;;;5088733;28;19936;-82
2022/08/13 09:05:25;;;;;;;;;;;37.40;55.70;;;;;;5089052;28;20248;-82
2022/08/13 09:07:51;;;;;;;;;;;37.60;55.80;;;;;;5089120;28;19914;-82
2022/08/13 09:10:18;;;;;;;;;;;37.70;55.80;;;;;;5088725;28;19913;-82
2022/08/13 09:12:45;;;;;;;;;;;37.70;56.00;;;;;;5090782;28;19919;-80
2022/08/13 09:15:11;;;;;;;;;;;38.00;56.30;;;;;;5091079;28;19919;-79
2022/08/13 09:17:37;;;;;;;;;;;38.50;56.30;;;;;;5089876;28;19989;-80
2022/08/13 09:20:04;;;;;;;;;;;39.00;56.20;;;;;;5090079;28;19911;-81
2022/08/13 09:22:30;;;;;;;;;;;39.20;56.00;;;;;;5091748;28;19941;-81
2022/08/13 09:24:59;;;;;;;;;;;39.40;55.60;;;;;;5072775;28;19998;-81
2022/08/13 09:27:26;;;;;;;;;;;39.30;55.70;;;;;;5090610;28;19951;-82
2022/08/13 09:29:51;;;;;;;;;;;39.30;55.80;;;;;;5088853;28;20770;-81
2022/08/13 09:32:17;;;;;;;;;;;39.10;56.10;;;;;;5088442;28;19912;-82
2022/08/13 09:34:46;;;;;;;;;;;39.20;56.20;;;;;;5090027;28;19916;-81
2022/08/13 09:37:13;;;;;;;;;;;39.40;56.10;;;;;;5088525;28;19909;-82
2022/08/13 09:39:46;;;;;;;;;;;39.70;55.90;;;;;;5090792;28;20424;-82
2022/08/13 09:42:33;;;;;;;;;;;39.60;56.00;;;;;;5090786;28;19908;-82
2022/08/13 09:45:00;;;;;;;;;;;39.70;56.30;;;;;;5090571;28;19908;-82
2022/08/13 09:47:26;;;;;;;;;;;39.50;56.30;;;;;;5088546;28;19947;-82
2022/08/13 09:49:51;;;;;;;;;;;39.40;56.30;;;;;;5088626;28;19912;-81
2022/08/13 09:52:17;;;;;;;;;;;39.30;56.60;;;;;;5088764;28;20380;-81
2022/08/13 09:54:43;;;;;;;;;;;39.30;56.60;;;;;;5088171;28;19931;-81
2022/08/13 09:57:09;;;;;;;;;;;39.50;56.60;;;;;;5087944;28;20002;-80
2022/08/13 09:59:35;;;;;;;;;;;39.40;56.50;;;;;;5088183;28;19930;-80
2022/08/13 10:02:05;;;;;;;;;;;39.20;56.60;;;;;;5089751;28;19912;-81
2022/08/13 10:04:32;;;;;;;;;;;39.10;56.90;;;;;;5089483;28;19952;-81
2022/08/13 10:06:58;;;;;;;;;;;39.30;56.80;;;;;;5090772;28;19908;-81
2022/08/13 10:09:26;;;;;;;;;;;39.60;56.70;;;;;;5090848;28;19923;-81
2022/08/13 10:11:53;;;;;;;;;;;39.70;56.70;;;;;;5088822;28;20376;-79
2022/08/13 10:14:18;;;;;;;;;;;39.50;56.80;;;;;;5090764;28;20322;-80
2022/08/13 10:16:44;;;;;;;;;;;39.60;57.00;;;;;;5090881;28;19924;-80
2022/08/13 10:19:09;;;;;;;;;;;39.70;57.00;;;;;;5093040;28;19917;-80
2022/08/13 10:21:35;;;;;;;;;;;39.80;57.20;;;;;;5091645;28;19955;-80
2022/08/13 10:24:01;;;;;;;;;;;40.10;57.10;;;;;;5090158;28;20368;-79
2022/08/13 10:26:26;;;;;;;;;;;40.40;56.80;;;;;;5089843;28;20352;-80
2022/08/13 10:28:52;;;;;;;;;;;40.60;56.80;;;;;;5090824;28;19919;-79
2022/08/13 10:31:17;;;;;;;;;;;40.90;56.80;;;;;;5090665;28;20046;-79
2022/08/13 10:33:43;;;;;;;;;;;41.20;56.70;;;;;;5091732;28;19916;-81
2022/08/13 10:36:18;;;;;;;;;;;41.30;56.70;;;;;;5088790;28;19995;-79
2022/08/13 10:38:44;;;;;;;;;;;41.30;56.80;;;;;;5092731;28;19974;-79
2022/08/13 10:41:10;;;;;;;;;;;41.40;56.90;;;;;;5092657;28;20345;-80
2022/08/13 10:43:39;;;;;;;;;;;41.50;56.90;;;;;;5095220;28;19920;-80
2022/08/13 10:46:07;;;;;;;;;;;41.60;56.80;;;;;;5093958;28;19974;-78
2022/08/13 10:48:32;;;;;;;;;;;41.60;56.70;;;;;;5095500;28;19990;-80
2022/08/13 10:50:58;;;;;;;;;;;41.50;56.80;;;;;;5077771;28;20400;-80
2022/08/13 10:56:09;;;;;;;;;;;41.40;56.60;;;;;;5093417;28;19961;-81
2022/08/13 10:58:39;;;;;;;;;;;41.40;56.70;;;;;;5092310;28;20356;-80
2022/08/13 11:01:04;;;;;;;;;;;41.50;56.80;;;;;;5092825;28;19991;-80
2022/08/13 11:03:30;;;;;;;;;;;41.50;56.90;;;;;;5093213;28;20327;-78
2022/08/13 11:05:59;;;;;;;;;;;41.40;57.60;;;;;;5091879;28;19908;-78
2022/08/13 11:08:26;;;;;;;;;;;41.50;57.20;;;;;;5092578;28;19954;-78
2022/08/13 11:10:51;;;;;;;;;;;41.70;57.00;;;;;;5092605;28;19912;-78
2022/08/13 11:13:17;;;;;;;;;;;42.00;57.00;;;;;;5090908;28;20348;-78
2022/08/13 11:15:42;;;;;;;;;;;42.10;56.70;;;;;;5092585;28;19913;-79
2022/08/13 11:18:09;;;;;;;;;;;42.20;56.50;;;;;;5092833;28;19916;-77
2022/08/13 11:20:50;;;;;;;;;;;42.40;56.70;;;;;;5093331;28;19912;-80
2022/08/13 11:23:16;;;;;;;;;;;42.40;56.40;;;;;;5091673;28;20338;-80
2022/08/13 11:25:41;;;;;;;;;;;42.10;56.80;;;;;;5091315;28;19913;-75
2022/08/13 11:28:11;;;;;;;;;;;41.90;57.10;;;;;;5089826;28;19912;-75
2022/08/13 11:30:37;;;;;;;;;;;42.00;57.30;;;;;;5091171;28;19918;-80
2022/08/13 11:33:03;;;;;;;;;;;42.20;57.20;;;;;;5090675;28;19975;-78
2022/08/13 11:35:28;;;;;;;;;;;42.40;57.20;;;;;;5090824;28;19908;-78
2022/08/13 11:37:54;;;;;;;;;;;42.60;57.00;;;;;;5091399;28;19919;-77
2022/08/13 11:40:19;;;;;;;;;;;42.60;56.70;;;;;;5094158;28;19924;-78
2022/08/13 11:42:45;;;;;;;;;;;42.40;56.60;;;;;;5092063;28;20272;-75
2022/08/13 11:45:11;;;;;;;;;;;42.20;56.80;;;;;;5090255;28;19912;-80
2022/08/13 11:47:40;;;;;;;;;;;42.00;57.00;;;;;;5090701;28;20353;-76
2022/08/13 11:50:05;;;;;;;;;;;42.00;57.10;;;;;;5088971;28;19920;-81
2022/08/13 11:52:31;;;;;;;;;;;41.90;57.00;;;;;;5073252;28;19920;-80
2022/08/13 11:54:57;;;;;;;;;;;41.40;57.10;;;;;;5072856;28;19946;-79
2022/08/13 11:57:22;;;;;;;;;;;40.80;57.20;;;;;;5090990;28;19939;-79
2022/08/13 11:59:48;;;;;;;;;;;40.70;57.40;;;;;;5090889;28;20006;-80
2022/08/13 12:02:14;;;;;;;;;;;40.40;57.40;;;;;;5089300;28;19912;-81
2022/08/13 12:04:40;;;;;;;;;;;40.40;57.80;;;;;;5091226;28;20252;-81
2022/08/13 12:07:05;;;;;;;;;;;40.70;57.60;;;;;;5091585;28;19912;-79
2022/08/13 12:09:31;;;;;;;;;;;41.00;57.30;;;;;;5090821;28;20745;-79
2022/08/13 12:11:56;;;;;;;;;;;41.20;57.30;;;;;;5090229;28;19913;-78
2022/08/13 12:14:22;;;;;;;;;;;41.40;57.20;;;;;;5091538;28;19913;-82
2022/08/13 12:16:47;;;;;;;;;;;41.50;57.00;;;;;;5092015;28;20065;-79
2022/08/13 12:19:13;;;;;;;;;;;41.40;57.00;;;;;;5092075;28;19927;-81
2022/08/13 12:21:38;;;;;;;;;;;41.20;57.30;;;;;;5073193;28;20267;-80
2022/08/13 12:24:05;;;;;;;;;;;41.20;57.30;;;;;;5072658;28;19912;-80
2022/08/13 12:26:31;;;;;;;;;;;41.10;57.10;;;;;;5091713;28;19998;-80
2022/08/13 12:28:57;;;;;;;;;;;41.10;57.20;;;;;;5090440;28;19955;-79
2022/08/13 12:31:22;;;;;;;;;;;41.00;57.30;;;;;;5090079;28;19965;-79
2022/08/13 12:33:48;;;;;;;;;;;40.80;57.30;;;;;;5095077;28;19999;-83
2022/08/13 12:36:14;;;;;;;;;;;40.80;57.60;;;;;;5092709;28;19977;-78
2022/08/13 12:38:39;;;;;;;;;;;41.00;57.40;;;;;;5090466;28;19912;-75
2022/08/13 12:41:05;;;;;;;;;;;41.00;57.10;;;;;;5090267;28;19920;-77
2022/08/13 12:43:30;;;;;;;;;;;41.00;57.10;;;;;;5089026;28;19912;-80
2022/08/13 12:45:57;;;;;;;;;;;40.60;57.20;;;;;;5090273;28;20296;-81
2022/08/13 12:48:28;;;;;;;;;;;40.30;57.50;;;;;;5089962;28;19981;-79
2022/08/13 12:50:53;;;;;;;;;;;40.10;57.90;;;;;;5090963;28;20310;-78
2022/08/13 12:53:19;;;;;;;;;;;40.20;57.80;;;;;;5089107;28;20206;-81
2022/08/13 12:55:45;;;;;;;;;;;40.20;57.70;;;;;;5090531;28;19916;-78
2022/08/13 12:58:19;;;;;;;;;;;40.30;57.50;;;;;;5089730;28;19919;-77
2022/08/13 13:00:46;;;;;;;;;;;40.30;57.50;;;;;;5089391;28;19908;-82
2022/08/13 13:03:12;;;;;;;;;;;40.40;57.50;;;;;;5090455;28;19908;-81
2022/08/13 13:05:38;;;;;;;;;;;40.40;57.30;;;;;;5088440;28;20280;-82
2022/08/13 13:08:17;;;;;;;;;;;40.20;57.20;;;;;;5090690;28;19916;-83
2022/08/13 13:10:43;;;;;;;;;;;39.90;57.50;;;;;;5090749;28;19967;-81
2022/08/13 13:13:09;;;;;;;;;;;39.70;57.50;;;;;;5091103;28;20450;-83
2022/08/13 13:15:35;;;;;;;;;;;39.60;57.30;;;;;;5091592;28;19908;-79
2022/08/13 13:18:00;;;;;;;;;;;39.70;57.20;;;;;;5088574;28;19956;-80
2022/08/13 13:20:26;;;;;;;;;;;39.70;56.90;;;;;;5071813;28;19919;-76
2022/08/13 13:22:52;;;;;;;;;;;39.60;57.10;;;;;;5072163;28;19926;-79
2022/08/13 13:25:19;;;;;;;;;;;39.60;57.10;;;;;;5088576;28;20010;-82
2022/08/13 13:27:45;;;;;;;;;;;39.40;57.00;;;;;;5090518;28;19919;-82
2022/08/13 13:30:12;;;;;;;;;;;39.20;57.20;;;;;;5090539;28;19912;-82
2022/08/13 13:32:38;;;;;;;;;;;38.90;57.00;;;;;;5092829;28;19926;-79
2022/08/13 13:35:04;;;;;;;;;;;38.40;57.10;;;;;;5072625;28;20003;-80
2022/08/13 13:37:39;;;;;;;;;;;37.80;57.00;;;;;;5088949;28;20003;-80
2022/08/13 13:40:05;;;;;;;;;;;37.20;57.00;;;;;;5088695;28;20423;-79
2022/08/13 13:42:30;;;;;;;;;;;36.60;56.70;;;;;;5089204;28;20019;-79
2022/08/13 13:44:57;;;;;;;;;;;36.10;56.60;;;;;;5088269;28;19972;-80
2022/08/13 13:47:23;;;;;;;;;;;35.60;56.50;;;;;;5089352;28;19913;-78
2022/08/13 13:49:48;;;;;;;;;;;35.20;56.50;;;;;;5088311;28;19915;-79
2022/08/13 13:52:14;;;;;;;;;;;34.90;56.50;;;;;;5087982;28;20282;-78
2022/08/13 13:54:40;;;;;;;;;;;34.60;56.60;;;;;;5088048;28;19916;-79
2022/08/13 13:57:06;;;;;;;;;;;34.40;56.40;;;;;;5087540;28;20309;-78
2022/08/13 13:59:32;;;;;;;;;;;34.10;56.20;;;;;;5089004;28;20004;-77
2022/08/13 14:01:58;;;;;;;;;;;33.90;56.20;;;;;;5088683;28;19970;-74
2022/08/13 14:04:23;;;;;;;;;;;33.60;56.30;;;;;;5087846;28;19914;-81
2022/08/13 14:06:49;;;;;;;;;;;33.40;56.20;;;;;;5071047;28;19916;-79
2022/08/13 14:09:14;;;;;;;;;;;33.20;56.20;;;;;;5087473;28;19912;-78
2022/08/13 14:11:43;;;;;;;;;;;33.10;56.10;;;;;;5090801;28;19912;-81
2022/08/13 14:14:09;;;;;;;;;;;33.00;56.00;;;;;;5092686;28;20007;-80
2022/08/13 14:16:36;;;;;;;;;;;32.90;55.90;;;;;;5092208;28;20019;-79
2022/08/13 14:19:01;;;;;;;;;;;32.90;55.80;;;;;;5092968;28;19908;-79
2022/08/13 14:21:27;;;;;;;;;;;32.90;55.70;;;;;;5093096;28;19912;-77
2022/08/13 14:23:53;;;;;;;;;;;32.90;55.50;;;;;;5092118;28;20387;-77
2022/08/13 14:26:19;;;;;;;;;;;32.90;55.40;;;;;;5092312;28;20073;-77
2022/08/13 14:28:45;;;;;;;;;;;32.80;55.30;;;;;;5092188;28;20061;-77
2022/08/13 14:31:11;;;;;;;;;;;32.60;55.40;;;;;;5091857;28;19934;-75
2022/08/13 14:33:39;;;;;;;;;;;32.50;55.40;;;;;;5092229;28;20341;-76
2022/08/13 14:36:04;;;;;;;;;;;32.30;55.40;;;;;;5092329;28;19913;-76
2022/08/13 14:38:30;;;;;;;;;;;32.20;55.40;;;;;;5092130;28;19913;-78
2022/08/13 14:41:01;;;;;;;;;;;32.10;55.50;;;;;;5091344;28;20376;-77